sensor_id;sensor_type;location;lat;lon;timestamp;P1;durP1;ratioP1;P2;durP2;ratioP2
13255;SDS011;37913;48.370;10.930;2023-06-10T00:01:59;90.82;;;45.05;;
13255;SDS011;37913;48.370;10.930;2023-06-10T00:04:27;92.72;;;45.40;;
13255;SDS011;37913;48.370;10.930;2023-06-10T00:06:54;93.68;;;45.67;;
13255;SDS011;37913;48.370;10.930;2023-06-10T00:09:22;94.93;;;46.20;;
13255;SDS011;37913;48.370;10.930;2023-06-10T00:11:49;96.38;;;46.67;;
13255;SDS011;37913;48.370;10.930;2023-06-10T00:14:16;91.63;;;45.30;;
13255;SDS011;37913;48.370;10.930;2023-06-10T00:16:43;99.82;;;46.55;;
13255;SDS011;37913;48.370;10.930;2023-06-10T00:19:11;93.20;;;45.35;;
13255;SDS011;37913;48.370;10.930;2023-06-10T00:21:42;98.47;;;46.38;;
13255;SDS011;37913;48.370;10.930;2023-06-10T00:24:10;93.10;;;45.15;;
13255;SDS011;37913;48.370;10.930;2023-06-10T00:26:37;93.22;;;45.83;;
13255;SDS011;37913;48.370;10.930;2023-06-10T00:29:05;84.20;;;42.83;;
13255;SDS011;37913;48.370;10.930;2023-06-10T00:31:33;90.43;;;44.83;;
13255;SDS011;37913;48.370;10.930;2023-06-10T00:34:01;97.35;;;45.55;;
13255;SDS011;37913;48.370;10.930;2023-06-10T00:36:28;87.70;;;44.05;;
13255;SDS011;37913;48.370;10.930;2023-06-10T00:38:56;86.03;;;43.85;;
13255;SDS011;37913;48.370;10.930;2023-06-10T00:41:23;93.70;;;44.92;;
13255;SDS011;37913;48.370;10.930;2023-06-10T00:43:52;87.72;;;44.08;;
13255;SDS011;37913;48.370;10.930;2023-06-10T00:46:19;92.32;;;44.97;;
13255;SDS011;37913;48.370;10.930;2023-06-10T00:48:47;95.15;;;45.42;;
13255;SDS011;37913;48.370;10.930;2023-06-10T00:51:14;90.75;;;43.97;;
13255;SDS011;37913;48.370;10.930;2023-06-10T00:53:42;91.10;;;44.10;;
13255;SDS011;37913;48.370;10.930;2023-06-10T00:56:12;91.47;;;44.78;;
13255;SDS011;37913;48.370;10.930;2023-06-10T00:58:40;96.95;;;45.63;;
13255;SDS011;37913;48.370;10.930;2023-06-10T01:01:07;98.25;;;45.75;;
13255;SDS011;37913;48.370;10.930;2023-06-10T01:03:35;86.53;;;43.65;;
13255;SDS011;37913;48.370;10.930;2023-06-10T01:06:06;90.50;;;44.78;;
13255;SDS011;37913;48.370;10.930;2023-06-10T01:08:44;96.65;;;45.15;;
13255;SDS011;37913;48.370;10.930;2023-06-10T01:11:19;100.47;;;45.95;;
13255;SDS011;37913;48.370;10.930;2023-06-10T01:13:50;89.97;;;44.03;;
13255;SDS011;37913;48.370;10.930;2023-06-10T01:16:17;101.68;;;47.33;;
13255;SDS011;37913;48.370;10.930;2023-06-10T01:18:46;95.60;;;45.13;;
13255;SDS011;37913;48.370;10.930;2023-06-10T01:21:16;90.72;;;44.63;;
13255;SDS011;37913;48.370;10.930;2023-06-10T01:23:46;91.88;;;45.13;;
13255;SDS011;37913;48.370;10.930;2023-06-10T01:26:13;91.10;;;44.67;;
13255;SDS011;37913;48.370;10.930;2023-06-10T01:28:43;88.90;;;44.30;;
13255;SDS011;37913;48.370;10.930;2023-06-10T01:31:15;100.20;;;46.25;;
13255;SDS011;37913;48.370;10.930;2023-06-10T01:33:47;92.78;;;44.50;;
13255;SDS011;37913;48.370;10.930;2023-06-10T01:36:19;91.22;;;44.67;;
13255;SDS011;37913;48.370;10.930;2023-06-10T01:38:47;94.00;;;45.85;;
13255;SDS011;37913;48.370;10.930;2023-06-10T01:41:17;95.20;;;45.55;;
13255;SDS011;37913;48.370;10.930;2023-06-10T01:43:44;93.15;;;45.08;;
13255;SDS011;37913;48.370;10.930;2023-06-10T01:46:12;89.70;;;45.40;;
13255;SDS011;37913;48.370;10.930;2023-06-10T01:48:41;95.40;;;45.88;;
13255;SDS011;37913;48.370;10.930;2023-06-10T01:51:08;89.22;;;44.10;;
13255;SDS011;37913;48.370;10.930;2023-06-10T01:53:36;87.32;;;43.85;;
13255;SDS011;37913;48.370;10.930;2023-06-10T01:56:03;86.55;;;43.05;;
13255;SDS011;37913;48.370;10.930;2023-06-10T01:58:31;94.82;;;45.28;;
13255;SDS011;37913;48.370;10.930;2023-06-10T02:00:58;90.70;;;44.95;;
13255;SDS011;37913;48.370;10.930;2023-06-10T02:03:24;77.93;;;41.83;;
13255;SDS011;37913;48.370;10.930;2023-06-10T02:05:51;88.85;;;44.35;;
13255;SDS011;37913;48.370;10.930;2023-06-10T02:08:18;92.57;;;44.50;;
13255;SDS011;37913;48.370;10.930;2023-06-10T02:10:46;94.82;;;45.28;;
13255;SDS011;37913;48.370;10.930;2023-06-10T02:13:13;96.38;;;45.47;;
13255;SDS011;37913;48.370;10.930;2023-06-10T02:15:41;92.05;;;44.47;;
13255;SDS011;37913;48.370;10.930;2023-06-10T02:18:08;92.45;;;44.90;;
13255;SDS011;37913;48.370;10.930;2023-06-10T02:20:36;93.82;;;44.88;;
13255;SDS011;37913;48.370;10.930;2023-06-10T02:23:03;93.68;;;44.97;;
13255;SDS011;37913;48.370;10.930;2023-06-10T02:25:30;90.47;;;43.97;;
13255;SDS011;37913;48.370;10.930;2023-06-10T02:27:59;93.22;;;44.97;;
13255;SDS011;37913;48.370;10.930;2023-06-10T02:30:26;92.68;;;45.08;;
13255;SDS011;37913;48.370;10.930;2023-06-10T02:32:52;93.50;;;45.20;;
13255;SDS011;37913;48.370;10.930;2023-06-10T02:35:21;89.78;;;43.83;;
13255;SDS011;37913;48.370;10.930;2023-06-10T02:37:49;98.97;;;46.22;;
13255;SDS011;37913;48.370;10.930;2023-06-10T02:40:16;88.88;;;44.50;;
13255;SDS011;37913;48.370;10.930;2023-06-10T02:42:43;90.60;;;44.65;;
13255;SDS011;37913;48.370;10.930;2023-06-10T02:45:11;93.35;;;45.65;;
13255;SDS011;37913;48.370;10.930;2023-06-10T02:47:38;88.85;;;44.08;;
13255;SDS011;37913;48.370;10.930;2023-06-10T02:50:05;87.95;;;44.13;;
13255;SDS011;37913;48.370;10.930;2023-06-10T02:52:33;84.93;;;43.58;;
13255;SDS011;37913;48.370;10.930;2023-06-10T02:55:00;96.65;;;45.15;;
13255;SDS011;37913;48.370;10.930;2023-06-10T02:57:26;86.82;;;44.42;;
13255;SDS011;37913;48.370;10.930;2023-06-10T02:59:53;86.28;;;44.08;;
13255;SDS011;37913;48.370;10.930;2023-06-10T03:02:23;87.80;;;44.40;;
13255;SDS011;37913;48.370;10.930;2023-06-10T03:04:53;110.38;;;49.13;;
13255;SDS011;37913;48.370;10.930;2023-06-10T03:07:20;81.50;;;42.78;;
13255;SDS011;37913;48.370;10.930;2023-06-10T03:09:48;91.07;;;44.38;;
13255;SDS011;37913;48.370;10.930;2023-06-10T03:12:15;86.55;;;44.42;;
13255;SDS011;37913;48.370;10.930;2023-06-10T03:14:42;88.10;;;44.15;;
13255;SDS011;37913;48.370;10.930;2023-06-10T03:17:09;83.70;;;43.22;;
13255;SDS011;37913;48.370;10.930;2023-06-10T03:19:37;92.65;;;45.92;;
13255;SDS011;37913;48.370;10.930;2023-06-10T03:22:08;98.45;;;46.45;;
13255;SDS011;37913;48.370;10.930;2023-06-10T03:24:35;85.63;;;43.83;;
13255;SDS011;37913;48.370;10.930;2023-06-10T03:27:05;88.57;;;43.95;;
13255;SDS011;37913;48.370;10.930;2023-06-10T03:29:33;84.28;;;42.88;;
13255;SDS011;37913;48.370;10.930;2023-06-10T03:32:00;87.07;;;44.05;;
13255;SDS011;37913;48.370;10.930;2023-06-10T03:34:27;86.57;;;43.67;;
13255;SDS011;37913;48.370;10.930;2023-06-10T03:36:56;82.25;;;43.17;;
13255;SDS011;37913;48.370;10.930;2023-06-10T03:39:23;85.45;;;43.22;;
13255;SDS011;37913;48.370;10.930;2023-06-10T03:41:50;88.97;;;44.65;;
13255;SDS011;37913;48.370;10.930;2023-06-10T03:44:17;90.93;;;44.17;;
13255;SDS011;37913;48.370;10.930;2023-06-10T03:46:44;87.13;;;44.33;;
13255;SDS011;37913;48.370;10.930;2023-06-10T03:49:12;88.07;;;43.88;;
13255;SDS011;37913;48.370;10.930;2023-06-10T03:51:40;79.20;;;42.00;;
13255;SDS011;37913;48.370;10.930;2023-06-10T03:54:08;85.45;;;44.05;;
13255;SDS011;37913;48.370;10.930;2023-06-10T03:56:35;78.45;;;42.22;;
13255;SDS011;37913;48.370;10.930;2023-06-10T03:59:02;95.05;;;45.58;;
13255;SDS011;37913;48.370;10.930;2023-06-10T04:01:30;95.10;;;44.78;;
13255;SDS011;37913;48.370;10.930;2023-06-10T04:03:58;92.05;;;44.25;;
13255;SDS011;37913;48.370;10.930;2023-06-10T04:06:26;95.05;;;45.40;;
13255;SDS011;37913;48.370;10.930;2023-06-10T04:08:54;87.93;;;43.72;;
13255;SDS011;37913;48.370;10.930;2023-06-10T04:11:23;89.63;;;44.50;;
13255;SDS011;37913;48.370;10.930;2023-06-10T04:13:50;98.20;;;45.65;;
13255;SDS011;37913;48.370;10.930;2023-06-10T04:16:17;90.47;;;44.47;;
13255;SDS011;37913;48.370;10.930;2023-06-10T04:18:44;93.30;;;45.22;;
13255;SDS011;37913;48.370;10.930;2023-06-10T04:21:11;85.53;;;42.97;;
13255;SDS011;37913;48.370;10.930;2023-06-10T04:23:38;91.63;;;44.30;;
13255;SDS011;37913;48.370;10.930;2023-06-10T04:26:04;100.80;;;46.20;;
13255;SDS011;37913;48.370;10.930;2023-06-10T04:28:33;90.45;;;44.50;;
13255;SDS011;37913;48.370;10.930;2023-06-10T04:31:01;97.57;;;45.58;;
13255;SDS011;37913;48.370;10.930;2023-06-10T04:33:29;87.90;;;43.65;;
13255;SDS011;37913;48.370;10.930;2023-06-10T04:35:56;93.30;;;45.25;;
13255;SDS011;37913;48.370;10.930;2023-06-10T04:38:23;91.20;;;44.78;;
13255;SDS011;37913;48.370;10.930;2023-06-10T04:40:50;89.22;;;44.50;;
13255;SDS011;37913;48.370;10.930;2023-06-10T04:43:17;90.82;;;44.33;;
13255;SDS011;37913;48.370;10.930;2023-06-10T04:45:45;93.55;;;44.85;;
13255;SDS011;37913;48.370;10.930;2023-06-10T04:48:12;95.70;;;45.60;;
13255;SDS011;37913;48.370;10.930;2023-06-10T04:50:40;89.30;;;43.50;;
13255;SDS011;37913;48.370;10.930;2023-06-10T04:53:07;79.22;;;42.47;;
13255;SDS011;37913;48.370;10.930;2023-06-10T04:55:34;84.22;;;43.33;;
13255;SDS011;37913;48.370;10.930;2023-06-10T04:58:01;77.63;;;42.42;;
13255;SDS011;37913;48.370;10.930;2023-06-10T05:00:28;90.85;;;45.05;;
13255;SDS011;37913;48.370;10.930;2023-06-10T05:02:56;93.47;;;45.10;;
13255;SDS011;37913;48.370;10.930;2023-06-10T05:05:23;82.22;;;43.55;;
13255;SDS011;37913;48.370;10.930;2023-06-10T05:07:50;87.18;;;44.47;;
13255;SDS011;37913;48.370;10.930;2023-06-10T05:10:17;89.50;;;44.95;;
13255;SDS011;37913;48.370;10.930;2023-06-10T05:12:44;86.05;;;44.10;;
13255;SDS011;37913;48.370;10.930;2023-06-10T05:15:11;88.20;;;44.50;;
13255;SDS011;37913;48.370;10.930;2023-06-10T05:17:38;96.13;;;46.20;;
13255;SDS011;37913;48.370;10.930;2023-06-10T05:20:07;94.97;;;46.00;;
13255;SDS011;37913;48.370;10.930;2023-06-10T05:22:35;90.47;;;46.03;;
13255;SDS011;37913;48.370;10.930;2023-06-10T05:25:03;92.35;;;46.05;;
13255;SDS011;37913;48.370;10.930;2023-06-10T05:27:30;92.90;;;45.70;;
13255;SDS011;37913;48.370;10.930;2023-06-10T05:29:57;83.50;;;44.67;;
13255;SDS011;37913;48.370;10.930;2023-06-10T05:32:24;89.47;;;45.85;;
13255;SDS011;37913;48.370;10.930;2023-06-10T05:34:51;99.88;;;46.75;;
13255;SDS011;37913;48.370;10.930;2023-06-10T05:37:19;85.13;;;45.40;;
13255;SDS011;37913;48.370;10.930;2023-06-10T05:39:46;79.72;;;43.53;;
13255;SDS011;37913;48.370;10.930;2023-06-10T05:42:13;84.53;;;45.10;;
13255;SDS011;37913;48.370;10.930;2023-06-10T05:44:40;90.00;;;46.50;;
13255;SDS011;37913;48.370;10.930;2023-06-10T05:47:07;86.95;;;45.88;;
13255;SDS011;37913;48.370;10.930;2023-06-10T05:49:34;100.75;;;50.05;;
13255;SDS011;37913;48.370;10.930;2023-06-10T05:52:01;97.35;;;49.00;;
13255;SDS011;37913;48.370;10.930;2023-06-10T05:54:29;78.53;;;45.00;;
13255;SDS011;37913;48.370;10.930;2023-06-10T05:56:56;97.28;;;48.60;;
13255;SDS011;37913;48.370;10.930;2023-06-10T05:59:23;98.65;;;49.35;;
13255;SDS011;37913;48.370;10.930;2023-06-10T06:01:50;85.90;;;47.30;;
13255;SDS011;37913;48.370;10.930;2023-06-10T06:04:16;88.32;;;46.70;;
13255;SDS011;37913;48.370;10.930;2023-06-10T06:06:43;89.60;;;48.20;;
13255;SDS011;37913;48.370;10.930;2023-06-10T06:09:10;94.30;;;49.00;;
13255;SDS011;37913;48.370;10.930;2023-06-10T06:11:39;89.82;;;48.33;;
13255;SDS011;37913;48.370;10.930;2023-06-10T06:14:06;96.43;;;49.15;;
13255;SDS011;37913;48.370;10.930;2023-06-10T06:16:33;99.47;;;50.25;;
13255;SDS011;37913;48.370;10.930;2023-06-10T06:19:00;93.40;;;49.20;;
13255;SDS011;37913;48.370;10.930;2023-06-10T06:21:27;93.72;;;50.38;;
13255;SDS011;37913;48.370;10.930;2023-06-10T06:23:53;91.68;;;49.85;;
13255;SDS011;37913;48.370;10.930;2023-06-10T06:26:20;90.40;;;49.45;;
13255;SDS011;37913;48.370;10.930;2023-06-10T06:28:49;93.85;;;50.75;;
13255;SDS011;37913;48.370;10.930;2023-06-10T06:31:15;98.97;;;52.17;;
13255;SDS011;37913;48.370;10.930;2023-06-10T06:33:42;93.53;;;51.20;;
13255;SDS011;37913;48.370;10.930;2023-06-10T06:36:11;90.85;;;50.65;;
13255;SDS011;37913;48.370;10.930;2023-06-10T06:38:38;91.72;;;51.35;;
13255;SDS011;37913;48.370;10.930;2023-06-10T06:41:05;82.07;;;49.60;;
13255;SDS011;37913;48.370;10.930;2023-06-10T06:43:32;86.97;;;50.20;;
13255;SDS011;37913;48.370;10.930;2023-06-10T06:46:01;90.13;;;50.90;;
13255;SDS011;37913;48.370;10.930;2023-06-10T06:48:28;91.68;;;51.30;;
13255;SDS011;37913;48.370;10.930;2023-06-10T06:50:55;90.13;;;51.55;;
13255;SDS011;37913;48.370;10.930;2023-06-10T06:53:23;87.95;;;51.22;;
13255;SDS011;37913;48.370;10.930;2023-06-10T06:55:50;94.05;;;52.22;;
13255;SDS011;37913;48.370;10.930;2023-06-10T06:58:17;96.90;;;53.13;;
13255;SDS011;37913;48.370;10.930;2023-06-10T07:00:44;86.43;;;51.92;;
13255;SDS011;37913;48.370;10.930;2023-06-10T07:03:12;83.47;;;51.40;;
13255;SDS011;37913;48.370;10.930;2023-06-10T07:05:39;101.40;;;56.60;;
13255;SDS011;37913;48.370;10.930;2023-06-10T07:08:06;81.65;;;51.85;;
13255;SDS011;37913;48.370;10.930;2023-06-10T07:10:33;86.05;;;52.67;;
13255;SDS011;37913;48.370;10.930;2023-06-10T07:13:00;87.25;;;53.08;;
13255;SDS011;37913;48.370;10.930;2023-06-10T07:15:26;89.38;;;54.72;;
13255;SDS011;37913;48.370;10.930;2023-06-10T07:17:53;89.68;;;54.42;;
13255;SDS011;37913;48.370;10.930;2023-06-10T07:20:23;97.10;;;55.90;;
13255;SDS011;37913;48.370;10.930;2023-06-10T07:22:50;90.15;;;54.95;;
13255;SDS011;37913;48.370;10.930;2023-06-10T07:25:17;94.70;;;56.33;;
13255;SDS011;37913;48.370;10.930;2023-06-10T07:27:45;96.90;;;57.10;;
13255;SDS011;37913;48.370;10.930;2023-06-10T07:30:12;95.95;;;57.40;;
13255;SDS011;37913;48.370;10.930;2023-06-10T07:32:39;95.07;;;56.88;;
13255;SDS011;37913;48.370;10.930;2023-06-10T07:35:07;102.20;;;59.50;;
13255;SDS011;37913;48.370;10.930;2023-06-10T07:37:37;95.22;;;58.70;;
13255;SDS011;37913;48.370;10.930;2023-06-10T07:40:04;94.22;;;59.63;;
13255;SDS011;37913;48.370;10.930;2023-06-10T07:42:32;91.80;;;59.08;;
13255;SDS011;37913;48.370;10.930;2023-06-10T07:45:00;116.22;;;65.45;;
13255;SDS011;37913;48.370;10.930;2023-06-10T07:47:27;93.05;;;60.05;;
13255;SDS011;37913;48.370;10.930;2023-06-10T07:49:54;94.75;;;59.80;;
13255;SDS011;37913;48.370;10.930;2023-06-10T07:52:23;100.07;;;61.55;;
13255;SDS011;37913;48.370;10.930;2023-06-10T07:54:52;111.10;;;62.08;;
13255;SDS011;37913;48.370;10.930;2023-06-10T07:57:19;92.43;;;58.70;;
13255;SDS011;37913;48.370;10.930;2023-06-10T07:59:46;93.65;;;57.75;;
13255;SDS011;37913;48.370;10.930;2023-06-10T08:02:14;98.30;;;60.38;;
13255;SDS011;37913;48.370;10.930;2023-06-10T08:04:41;87.75;;;58.95;;
13255;SDS011;37913;48.370;10.930;2023-06-10T08:07:07;94.38;;;63.58;;
13255;SDS011;37913;48.370;10.930;2023-06-10T08:09:34;92.45;;;63.25;;
13255;SDS011;37913;48.370;10.930;2023-06-10T08:12:03;99.90;;;68.43;;
13255;SDS011;37913;48.370;10.930;2023-06-10T08:14:31;104.45;;;70.55;;
13255;SDS011;37913;48.370;10.930;2023-06-10T08:17:00;99.95;;;67.60;;
13255;SDS011;37913;48.370;10.930;2023-06-10T08:19:28;95.35;;;65.35;;
13255;SDS011;37913;48.370;10.930;2023-06-10T08:21:55;96.80;;;65.45;;
13255;SDS011;37913;48.370;10.930;2023-06-10T08:24:22;95.57;;;66.57;;
13255;SDS011;37913;48.370;10.930;2023-06-10T08:26:49;99.82;;;68.30;;
13255;SDS011;37913;48.370;10.930;2023-06-10T08:29:18;86.38;;;65.70;;
13255;SDS011;37913;48.370;10.930;2023-06-10T08:31:45;99.65;;;73.38;;
13255;SDS011;37913;48.370;10.930;2023-06-10T08:34:11;89.20;;;71.45;;
13255;SDS011;37913;48.370;10.930;2023-06-10T08:36:38;98.18;;;75.60;;
13255;SDS011;37913;48.370;10.930;2023-06-10T08:39:05;94.60;;;74.30;;
13255;SDS011;37913;48.370;10.930;2023-06-10T08:41:34;101.57;;;76.65;;
13255;SDS011;37913;48.370;10.930;2023-06-10T08:44:03;99.57;;;77.78;;
13255;SDS011;37913;48.370;10.930;2023-06-10T08:46:36;98.57;;;76.35;;
13255;SDS011;37913;48.370;10.930;2023-06-10T08:49:05;104.82;;;77.68;;
13255;SDS011;37913;48.370;10.930;2023-06-10T08:51:33;102.63;;;76.85;;
13255;SDS011;37913;48.370;10.930;2023-06-10T08:54:02;94.90;;;74.30;;
13255;SDS011;37913;48.370;10.930;2023-06-10T08:56:34;95.32;;;73.40;;
13255;SDS011;37913;48.370;10.930;2023-06-10T08:59:05;87.68;;;68.03;;
13255;SDS011;37913;48.370;10.930;2023-06-10T09:01:33;96.72;;;69.10;;
13255;SDS011;37913;48.370;10.930;2023-06-10T09:04:02;94.15;;;68.70;;
13255;SDS011;37913;48.370;10.930;2023-06-10T09:06:29;92.55;;;65.68;;
13255;SDS011;37913;48.370;10.930;2023-06-10T09:08:58;93.13;;;68.60;;
13255;SDS011;37913;48.370;10.930;2023-06-10T09:11:25;91.07;;;69.68;;
13255;SDS011;37913;48.370;10.930;2023-06-10T09:13:52;94.32;;;71.07;;
13255;SDS011;37913;48.370;10.930;2023-06-10T09:16:19;97.60;;;70.07;;
13255;SDS011;37913;48.370;10.930;2023-06-10T09:18:46;101.55;;;70.38;;
13255;SDS011;37913;48.370;10.930;2023-06-10T09:21:15;111.80;;;68.50;;
13255;SDS011;37913;48.370;10.930;2023-06-10T09:23:42;106.30;;;66.75;;
13255;SDS011;37913;48.370;10.930;2023-06-10T09:26:09;90.07;;;65.38;;
13255;SDS011;37913;48.370;10.930;2023-06-10T09:28:36;106.85;;;73.85;;
13255;SDS011;37913;48.370;10.930;2023-06-10T09:31:05;105.80;;;76.88;;
13255;SDS011;37913;48.370;10.930;2023-06-10T09:33:36;111.95;;;72.85;;
13255;SDS011;37913;48.370;10.930;2023-06-10T09:36:03;106.43;;;72.78;;
13255;SDS011;37913;48.370;10.930;2023-06-10T09:38:35;102.20;;;73.00;;
13255;SDS011;37913;48.370;10.930;2023-06-10T09:41:03;87.30;;;75.32;;
13255;SDS011;37913;48.370;10.930;2023-06-10T09:43:39;95.53;;;82.82;;
13255;SDS011;37913;48.370;10.930;2023-06-10T09:46:13;100.60;;;89.55;;
13255;SDS011;37913;48.370;10.930;2023-06-10T09:48:41;103.22;;;88.88;;
13255;SDS011;37913;48.370;10.930;2023-06-10T09:51:09;105.10;;;93.55;;
13255;SDS011;37913;48.370;10.930;2023-06-10T09:53:38;110.82;;;99.20;;
13255;SDS011;37913;48.370;10.930;2023-06-10T09:56:05;117.25;;;105.47;;
13255;SDS011;37913;48.370;10.930;2023-06-10T09:58:35;122.28;;;109.97;;
13255;SDS011;37913;48.370;10.930;2023-06-10T10:01:08;122.75;;;110.88;;
13255;SDS011;37913;48.370;10.930;2023-06-10T10:03:43;119.32;;;108.57;;
13255;SDS011;37913;48.370;10.930;2023-06-10T10:06:11;115.30;;;104.55;;
13255;SDS011;37913;48.370;10.930;2023-06-10T10:08:40;112.10;;;100.30;;
13255;SDS011;37913;48.370;10.930;2023-06-10T10:11:08;105.32;;;94.40;;
13255;SDS011;37913;48.370;10.930;2023-06-10T10:13:35;106.85;;;91.97;;
13255;SDS011;37913;48.370;10.930;2023-06-10T10:16:04;101.80;;;89.63;;
13255;SDS011;37913;48.370;10.930;2023-06-10T10:18:35;107.50;;;92.80;;
13255;SDS011;37913;48.370;10.930;2023-06-10T10:21:11;105.80;;;95.15;;
13255;SDS011;37913;48.370;10.930;2023-06-10T10:23:43;112.95;;;101.28;;
13255;SDS011;37913;48.370;10.930;2023-06-10T10:26:16;113.60;;;102.10;;
13255;SDS011;37913;48.370;10.930;2023-06-10T10:28:45;114.95;;;104.00;;
13255;SDS011;37913;48.370;10.930;2023-06-10T10:31:18;114.80;;;104.25;;
13255;SDS011;37913;48.370;10.930;2023-06-10T10:33:48;121.15;;;109.55;;
13255;SDS011;37913;48.370;10.930;2023-06-10T10:36:21;121.47;;;110.43;;
13255;SDS011;37913;48.370;10.930;2023-06-10T10:38:50;113.88;;;103.75;;
13255;SDS011;37913;48.370;10.930;2023-06-10T10:41:17;114.03;;;103.05;;
13255;SDS011;37913;48.370;10.930;2023-06-10T10:43:46;106.75;;;96.60;;
13255;SDS011;37913;48.370;10.930;2023-06-10T10:46:14;106.72;;;95.97;;
13255;SDS011;37913;48.370;10.930;2023-06-10T10:48:42;104.03;;;92.78;;
13255;SDS011;37913;48.370;10.930;2023-06-10T10:51:10;97.00;;;86.80;;
13255;SDS011;37913;48.370;10.930;2023-06-10T10:53:37;92.53;;;82.00;;
13255;SDS011;37913;48.370;10.930;2023-06-10T10:56:06;104.22;;;83.80;;
13255;SDS011;37913;48.370;10.930;2023-06-10T10:58:34;97.13;;;82.32;;
13255;SDS011;37913;48.370;10.930;2023-06-10T11:01:09;99.53;;;85.50;;
13255;SDS011;37913;48.370;10.930;2023-06-10T11:03:42;98.70;;;85.10;;
13255;SDS011;37913;48.370;10.930;2023-06-10T11:06:12;101.38;;;90.40;;
13255;SDS011;37913;48.370;10.930;2023-06-10T11:08:46;104.85;;;94.25;;
13255;SDS011;37913;48.370;10.930;2023-06-10T11:11:19;106.05;;;94.90;;
13255;SDS011;37913;48.370;10.930;2023-06-10T11:16:39;100.88;;;87.43;;
13255;SDS011;37913;48.370;10.930;2023-06-10T11:19:07;98.15;;;83.53;;
13255;SDS011;37913;48.370;10.930;2023-06-10T11:24:24;96.47;;;74.25;;
13255;SDS011;37913;48.370;10.930;2023-06-10T11:26:53;90.88;;;70.30;;
13255;SDS011;37913;48.370;10.930;2023-06-10T11:29:21;99.38;;;69.93;;
13255;SDS011;37913;48.370;10.930;2023-06-10T11:31:49;99.03;;;66.45;;
13255;SDS011;37913;48.370;10.930;2023-06-10T11:34:21;97.35;;;66.80;;
13255;SDS011;37913;48.370;10.930;2023-06-10T11:36:50;101.97;;;67.50;;
13255;SDS011;37913;48.370;10.930;2023-06-10T11:39:19;130.05;;;83.60;;
13255;SDS011;37913;48.370;10.930;2023-06-10T11:41:48;98.13;;;81.10;;
13255;SDS011;37913;48.370;10.930;2023-06-10T11:44:18;105.82;;;84.95;;
13255;SDS011;37913;48.370;10.930;2023-06-10T11:46:45;100.25;;;83.35;;
13255;SDS011;37913;48.370;10.930;2023-06-10T11:49:14;94.00;;;79.15;;
13255;SDS011;37913;48.370;10.930;2023-06-10T11:51:41;102.00;;;77.32;;
13255;SDS011;37913;48.370;10.930;2023-06-10T11:54:14;90.18;;;71.72;;
13255;SDS011;37913;48.370;10.930;2023-06-10T11:56:42;100.22;;;73.43;;
13255;SDS011;37913;48.370;10.930;2023-06-10T11:59:09;101.38;;;69.72;;
13255;SDS011;37913;48.370;10.930;2023-06-10T12:01:37;88.55;;;64.10;;
13255;SDS011;37913;48.370;10.930;2023-06-10T12:04:09;91.60;;;63.25;;
13255;SDS011;37913;48.370;10.930;2023-06-10T12:06:40;100.90;;;63.38;;
13255;SDS011;37913;48.370;10.930;2023-06-10T12:09:12;99.68;;;62.10;;
13255;SDS011;37913;48.370;10.930;2023-06-10T12:11:40;103.95;;;62.33;;
13255;SDS011;37913;48.370;10.930;2023-06-10T12:14:09;103.70;;;61.72;;
13255;SDS011;37913;48.370;10.930;2023-06-10T12:16:37;96.97;;;58.60;;
13255;SDS011;37913;48.370;10.930;2023-06-10T12:19:05;103.32;;;59.28;;
13255;SDS011;37913;48.370;10.930;2023-06-10T12:21:33;108.70;;;60.20;;
13255;SDS011;37913;48.370;10.930;2023-06-10T12:24:07;95.05;;;56.42;;
13255;SDS011;37913;48.370;10.930;2023-06-10T12:26:36;93.47;;;56.53;;
13255;SDS011;37913;48.370;10.930;2023-06-10T12:29:21;96.03;;;57.33;;
13255;SDS011;37913;48.370;10.930;2023-06-10T12:31:57;113.60;;;62.53;;
13255;SDS011;37913;48.370;10.930;2023-06-10T12:34:32;101.65;;;58.95;;
13255;SDS011;37913;48.370;10.930;2023-06-10T12:37:01;85.68;;;56.35;;
13255;SDS011;37913;48.370;10.930;2023-06-10T12:39:29;96.43;;;58.47;;
13255;SDS011;37913;48.370;10.930;2023-06-10T12:41:56;94.03;;;59.45;;
13255;SDS011;37913;48.370;10.930;2023-06-10T12:44:30;96.13;;;59.35;;
13255;SDS011;37913;48.370;10.930;2023-06-10T12:47:00;103.45;;;61.22;;
13255;SDS011;37913;48.370;10.930;2023-06-10T12:49:27;97.75;;;61.55;;
13255;SDS011;37913;48.370;10.930;2023-06-10T12:51:54;94.88;;;61.35;;
13255;SDS011;37913;48.370;10.930;2023-06-10T12:54:21;101.78;;;62.78;;
13255;SDS011;37913;48.370;10.930;2023-06-10T12:56:48;102.38;;;62.35;;
13255;SDS011;37913;48.370;10.930;2023-06-10T12:59:15;101.18;;;62.80;;
13255;SDS011;37913;48.370;10.930;2023-06-10T13:01:42;100.13;;;61.50;;
13255;SDS011;37913;48.370;10.930;2023-06-10T13:04:11;91.95;;;61.65;;
13255;SDS011;37913;48.370;10.930;2023-06-10T13:06:38;96.60;;;61.90;;
13255;SDS011;37913;48.370;10.930;2023-06-10T13:09:05;102.05;;;66.15;;
13255;SDS011;37913;48.370;10.930;2023-06-10T13:11:35;99.13;;;68.93;;
13255;SDS011;37913;48.370;10.930;2023-06-10T13:14:03;109.97;;;74.05;;
13255;SDS011;37913;48.370;10.930;2023-06-10T13:16:31;94.35;;;74.70;;
13255;SDS011;37913;48.370;10.930;2023-06-10T13:18:58;100.93;;;81.53;;
13255;SDS011;37913;48.370;10.930;2023-06-10T13:21:29;99.75;;;83.95;;
13255;SDS011;37913;48.370;10.930;2023-06-10T13:23:56;98.03;;;80.32;;
13255;SDS011;37913;48.370;10.930;2023-06-10T13:26:24;95.82;;;79.53;;
13255;SDS011;37913;48.370;10.930;2023-06-10T13:28:51;99.78;;;80.13;;
13255;SDS011;37913;48.370;10.930;2023-06-10T13:31:17;99.07;;;79.43;;
13255;SDS011;37913;48.370;10.930;2023-06-10T13:33:45;101.50;;;79.10;;
13255;SDS011;37913;48.370;10.930;2023-06-10T13:36:13;92.10;;;74.28;;
13255;SDS011;37913;48.370;10.930;2023-06-10T13:38:41;99.07;;;72.85;;
13255;SDS011;37913;48.370;10.930;2023-06-10T13:41:08;96.65;;;71.35;;
13255;SDS011;37913;48.370;10.930;2023-06-10T13:43:36;97.50;;;69.85;;
13255;SDS011;37913;48.370;10.930;2023-06-10T13:46:02;100.07;;;70.30;;
13255;SDS011;37913;48.370;10.930;2023-06-10T13:48:29;92.18;;;65.65;;
13255;SDS011;37913;48.370;10.930;2023-06-10T13:50:56;96.68;;;64.18;;
13255;SDS011;37913;48.370;10.930;2023-06-10T13:53:24;103.00;;;63.35;;
13255;SDS011;37913;48.370;10.930;2023-06-10T13:55:53;93.10;;;58.78;;
13255;SDS011;37913;48.370;10.930;2023-06-10T13:58:20;76.07;;;53.83;;
13255;SDS011;37913;48.370;10.930;2023-06-10T14:00:47;92.20;;;65.28;;
13255;SDS011;37913;48.370;10.930;2023-06-10T14:03:14;92.72;;;56.05;;
13255;SDS011;37913;48.370;10.930;2023-06-10T14:05:41;92.35;;;55.78;;
13255;SDS011;37913;48.370;10.930;2023-06-10T14:08:08;86.57;;;54.15;;
13255;SDS011;37913;48.370;10.930;2023-06-10T14:10:35;88.32;;;54.45;;
13255;SDS011;37913;48.370;10.930;2023-06-10T14:13:03;85.90;;;53.67;;
13255;SDS011;37913;48.370;10.930;2023-06-10T14:15:31;86.88;;;52.85;;
13255;SDS011;37913;48.370;10.930;2023-06-10T14:17:58;88.97;;;53.42;;